sensor_id;sensor_type;location;lat;lon;timestamp;temperature;humidity
33149;DHT22;19506;51.040;3.856;2022-09-30T00:01:31;16.90;99.90
33149;DHT22;19506;51.040;3.856;2022-09-30T00:03:58;16.90;99.90
33149;DHT22;19506;51.040;3.856;2022-09-30T00:06:25;16.90;99.90
33149;DHT22;19506;51.040;3.856;2022-09-30T00:08:52;16.90;99.90
33149;DHT22;19506;51.040;3.856;2022-09-30T00:11:21;16.90;99.90
33149;DHT22;19506;51.040;3.856;2022-09-30T00:13:50;16.80;99.90
33149;DHT22;19506;51.040;3.856;2022-09-30T00:16:17;16.80;99.90
33149;DHT22;19506;51.040;3.856;2022-09-30T00:18:43;16.80;99.90
33149;DHT22;19506;51.040;3.856;2022-09-30T00:21:10;16.80;99.90
33149;DHT22;19506;51.040;3.856;2022-09-30T00:23:37;16.80;99.90
33149;DHT22;19506;51.040;3.856;2022-09-30T00:26:06;16.80;99.90
33149;DHT22;19506;51.040;3.856;2022-09-30T00:28:33;16.80;99.90
33149;DHT22;19506;51.040;3.856;2022-09-30T00:30:59;16.80;99.90
33149;DHT22;19506;51.040;3.856;2022-09-30T00:33:25;16.80;99.90
33149;DHT22;19506;51.040;3.856;2022-09-30T00:35:50;16.80;99.90
33149;DHT22;19506;51.040;3.856;2022-09-30T00:38:16;16.80;99.90
33149;DHT22;19506;51.040;3.856;2022-09-30T00:40:44;16.80;99.90
33149;DHT22;19506;51.040;3.856;2022-09-30T00:43:15;16.80;99.90
33149;DHT22;19506;51.040;3.856;2022-09-30T00:45:54;16.80;99.90
33149;DHT22;19506;51.040;3.856;2022-09-30T00:48:30;16.80;99.90
33149;DHT22;19506;51.040;3.856;2022-09-30T00:50:57;16.80;99.90
33149;DHT22;19506;51.040;3.856;2022-09-30T00:53:34;16.80;99.90
33149;DHT22;19506;51.040;3.856;2022-09-30T00:56:08;16.80;99.90
33149;DHT22;19506;51.040;3.856;2022-09-30T00:58:55;16.80;99.90
33149;DHT22;19506;51.040;3.856;2022-09-30T01:01:24;16.90;99.90
33149;DHT22;19506;51.040;3.856;2022-09-30T01:03:51;16.90;99.90
33149;DHT22;19506;51.040;3.856;2022-09-30T01:06:21;16.90;99.90
33149;DHT22;19506;51.040;3.856;2022-09-30T01:08:47;17.00;99.90
33149;DHT22;19506;51.040;3.856;2022-09-30T01:11:13;17.00;99.90
33149;DHT22;19506;51.040;3.856;2022-09-30T01:13:41;17.00;99.90
33149;DHT22;19506;51.040;3.856;2022-09-30T01:30:22;17.20;99.90
33149;DHT22;19506;51.040;3.856;2022-09-30T01:33:08;17.20;99.90
33149;DHT22;19506;51.040;3.856;2022-09-30T01:38:04;17.30;99.90
33149;DHT22;19506;51.040;3.856;2022-09-30T01:51:34;17.40;99.90
33149;DHT22;19506;51.040;3.856;2022-09-30T01:54:13;17.50;99.90
33149;DHT22;19506;51.040;3.856;2022-09-30T01:56:46;17.50;99.90
33149;DHT22;19506;51.040;3.856;2022-09-30T01:59:18;17.50;99.90
33149;DHT22;19506;51.040;3.856;2022-09-30T02:02:05;17.50;99.90
33149;DHT22;19506;51.040;3.856;2022-09-30T02:04:40;17.50;99.90
33149;DHT22;19506;51.040;3.856;2022-09-30T02:07:12;17.60;99.90
33149;DHT22;19506;51.040;3.856;2022-09-30T02:09:47;17.60;99.90
33149;DHT22;19506;51.040;3.856;2022-09-30T02:12:19;17.60;99.90
33149;DHT22;19506;51.040;3.856;2022-09-30T02:15:09;17.60;99.90
33149;DHT22;19506;51.040;3.856;2022-09-30T02:17:40;17.60;99.90
33149;DHT22;19506;51.040;3.856;2022-09-30T02:20:12;17.60;99.90
33149;DHT22;19506;51.040;3.856;2022-09-30T02:22:44;17.60;99.90
33149;DHT22;19506;51.040;3.856;2022-09-30T02:25:17;17.50;99.90
33149;DHT22;19506;51.040;3.856;2022-09-30T02:27:49;17.50;99.90
33149;DHT22;19506;51.040;3.856;2022-09-30T02:30:16;17.50;99.90
33149;DHT22;19506;51.040;3.856;2022-09-30T02:32:50;17.40;99.90
33149;DHT22;19506;51.040;3.856;2022-09-30T02:35:22;17.40;99.90
33149;DHT22;19506;51.040;3.856;2022-09-30T02:37:59;17.30;99.90
33149;DHT22;19506;51.040;3.856;2022-09-30T02:40:32;17.30;99.90
33149;DHT22;19506;51.040;3.856;2022-09-30T02:43:01;17.20;99.90
33149;DHT22;19506;51.040;3.856;2022-09-30T02:45:31;17.20;99.90
33149;DHT22;19506;51.040;3.856;2022-09-30T02:51:15;17.10;99.90
33149;DHT22;19506;51.040;3.856;2022-09-30T02:53:42;17.10;99.90
33149;DHT22;19506;51.040;3.856;2022-09-30T02:58:44;17.00;99.90
33149;DHT22;19506;51.040;3.856;2022-09-30T03:01:12;17.00;99.90
33149;DHT22;19506;51.040;3.856;2022-09-30T03:04:00;16.90;99.90
33149;DHT22;19506;51.040;3.856;2022-09-30T03:06:27;16.90;99.90
33149;DHT22;19506;51.040;3.856;2022-09-30T03:08:53;16.90;99.90
33149;DHT22;19506;51.040;3.856;2022-09-30T03:11:25;16.90;99.90
33149;DHT22;19506;51.040;3.856;2022-09-30T03:17:28;16.80;99.90
33149;DHT22;19506;51.040;3.856;2022-09-30T03:28:25;16.70;99.90
33149;DHT22;19506;51.040;3.856;2022-09-30T03:31:05;16.70;99.90
33149;DHT22;19506;51.040;3.856;2022-09-30T03:34:09;16.70;99.90
33149;DHT22;19506;51.040;3.856;2022-09-30T03:36:53;16.60;99.90
33149;DHT22;19506;51.040;3.856;2022-09-30T03:39:50;16.60;99.90
33149;DHT22;19506;51.040;3.856;2022-09-30T03:42:24;16.60;99.90
33149;DHT22;19506;51.040;3.856;2022-09-30T03:44:56;16.60;99.90
33149;DHT22;19506;51.040;3.856;2022-09-30T03:47:25;16.60;99.90
33149;DHT22;19506;51.040;3.856;2022-09-30T03:49:56;16.60;99.90
33149;DHT22;19506;51.040;3.856;2022-09-30T03:52:24;16.60;99.90
33149;DHT22;19506;51.040;3.856;2022-09-30T03:54:56;16.60;99.90
33149;DHT22;19506;51.040;3.856;2022-09-30T03:57:24;16.60;99.90
33149;DHT22;19506;51.040;3.856;2022-09-30T03:59:51;16.50;99.90
33149;DHT22;19506;51.040;3.856;2022-09-30T04:02:17;16.50;99.90
33149;DHT22;19506;51.040;3.856;2022-09-30T04:04:42;16.50;99.90
33149;DHT22;19506;51.040;3.856;2022-09-30T04:07:09;16.50;99.90
33149;DHT22;19506;51.040;3.856;2022-09-30T04:09:38;16.50;99.90
33149;DHT22;19506;51.040;3.856;2022-09-30T04:12:04;16.50;99.90
33149;DHT22;19506;51.040;3.856;2022-09-30T04:14:30;16.50;99.90
33149;DHT22;19506;51.040;3.856;2022-09-30T04:16:56;16.50;99.90
33149;DHT22;19506;51.040;3.856;2022-09-30T04:19:22;16.40;99.90
33149;DHT22;19506;51.040;3.856;2022-09-30T04:21:51;16.40;99.90
33149;DHT22;19506;51.040;3.856;2022-09-30T04:24:18;16.50;99.90
33149;DHT22;19506;51.040;3.856;2022-09-30T04:26:43;16.50;99.90
33149;DHT22;19506;51.040;3.856;2022-09-30T04:29:09;16.40;99.90
33149;DHT22;19506;51.040;3.856;2022-09-30T04:31:35;16.40;99.90
33149;DHT22;19506;51.040;3.856;2022-09-30T04:34:00;16.40;99.90
33149;DHT22;19506;51.040;3.856;2022-09-30T04:36:26;16.40;99.90
33149;DHT22;19506;51.040;3.856;2022-09-30T04:38:52;16.40;99.90
33149;DHT22;19506;51.040;3.856;2022-09-30T04:41:18;16.40;99.90
33149;DHT22;19506;51.040;3.856;2022-09-30T04:43:45;16.40;99.90
33149;DHT22;19506;51.040;3.856;2022-09-30T04:46:15;16.40;99.90
33149;DHT22;19506;51.040;3.856;2022-09-30T04:48:41;16.40;99.90
33149;DHT22;19506;51.040;3.856;2022-09-30T04:51:18;16.40;99.90
33149;DHT22;19506;51.040;3.856;2022-09-30T04:53:46;16.40;99.90
33149;DHT22;19506;51.040;3.856;2022-09-30T04:56:12;16.40;99.90
33149;DHT22;19506;51.040;3.856;2022-09-30T04:58:38;16.40;99.90
33149;DHT22;19506;51.040;3.856;2022-09-30T05:01:05;16.30;99.90
33149;DHT22;19506;51.040;3.856;2022-09-30T05:03:32;16.40;99.90
33149;DHT22;19506;51.040;3.856;2022-09-30T05:05:57;16.30;99.90
33149;DHT22;19506;51.040;3.856;2022-09-30T05:08:23;16.30;99.90
33149;DHT22;19506;51.040;3.856;2022-09-30T05:10:53;16.30;99.90
33149;DHT22;19506;51.040;3.856;2022-09-30T05:13:19;16.30;99.90
33149;DHT22;19506;51.040;3.856;2022-09-30T05:15:47;16.30;99.90
33149;DHT22;19506;51.040;3.856;2022-09-30T05:18:13;16.30;99.90
33149;DHT22;19506;51.040;3.856;2022-09-30T05:20:38;16.30;99.90
33149;DHT22;19506;51.040;3.856;2022-09-30T05:23:04;16.30;99.90
33149;DHT22;19506;51.040;3.856;2022-09-30T05:25:30;16.30;99.90
33149;DHT22;19506;51.040;3.856;2022-09-30T05:27:56;16.30;99.90
33149;DHT22;19506;51.040;3.856;2022-09-30T05:30:21;16.30;99.90
33149;DHT22;19506;51.040;3.856;2022-09-30T05:32:47;16.20;99.90
33149;DHT22;19506;51.040;3.856;2022-09-30T05:35:13;16.20;99.90
33149;DHT22;19506;51.040;3.856;2022-09-30T05:37:39;16.20;99.90
33149;DHT22;19506;51.040;3.856;2022-09-30T05:40:06;16.20;99.90
33149;DHT22;19506;51.040;3.856;2022-09-30T05:42:32;16.20;99.90
33149;DHT22;19506;51.040;3.856;2022-09-30T05:45:01;16.20;99.90
33149;DHT22;19506;51.040;3.856;2022-09-30T05:47:26;16.20;99.90
33149;DHT22;19506;51.040;3.856;2022-09-30T05:49:52;16.20;99.90
33149;DHT22;19506;51.040;3.856;2022-09-30T05:52:17;16.20;99.90
33149;DHT22;19506;51.040;3.856;2022-09-30T05:54:44;16.20;99.90
33149;DHT22;19506;51.040;3.856;2022-09-30T05:57:09;16.20;99.90
33149;DHT22;19506;51.040;3.856;2022-09-30T05:59:35;16.20;99.90
33149;DHT22;19506;51.040;3.856;2022-09-30T06:02:02;16.20;99.90
33149;DHT22;19506;51.040;3.856;2022-09-30T06:04:28;16.20;99.90
33149;DHT22;19506;51.040;3.856;2022-09-30T06:06:53;16.20;99.90
33149;DHT22;19506;51.040;3.856;2022-09-30T06:09:19;16.20;99.90
33149;DHT22;19506;51.040;3.856;2022-09-30T06:11:45;16.20;99.90
33149;DHT22;19506;51.040;3.856;2022-09-30T06:14:10;16.20;99.90
33149;DHT22;19506;51.040;3.856;2022-09-30T06:16:36;16.20;99.90
33149;DHT22;19506;51.040;3.856;2022-09-30T06:19:01;16.20;99.90
33149;DHT22;19506;51.040;3.856;2022-09-30T06:21:27;16.10;99.90
33149;DHT22;19506;51.040;3.856;2022-09-30T06:23:53;16.10;99.90
33149;DHT22;19506;51.040;3.856;2022-09-30T06:26:18;16.10;99.90
33149;DHT22;19506;51.040;3.856;2022-09-30T06:28:44;16.10;99.90
33149;DHT22;19506;51.040;3.856;2022-09-30T06:31:10;16.10;99.90
33149;DHT22;19506;51.040;3.856;2022-09-30T06:33:36;16.10;99.90
33149;DHT22;19506;51.040;3.856;2022-09-30T06:36:02;16.10;99.90
33149;DHT22;19506;51.040;3.856;2022-09-30T06:38:30;16.10;99.90
33149;DHT22;19506;51.040;3.856;2022-09-30T06:40:58;16.10;99.90
33149;DHT22;19506;51.040;3.856;2022-09-30T06:43:24;16.10;99.90
33149;DHT22;19506;51.040;3.856;2022-09-30T06:45:49;16.10;99.90
33149;DHT22;19506;51.040;3.856;2022-09-30T06:48:16;16.10;99.90
33149;DHT22;19506;51.040;3.856;2022-09-30T06:50:42;16.10;99.90
33149;DHT22;19506;51.040;3.856;2022-09-30T06:53:10;16.10;99.90
33149;DHT22;19506;51.040;3.856;2022-09-30T06:55:36;16.10;99.90
33149;DHT22;19506;51.040;3.856;2022-09-30T06:58:07;16.10;99.90
33149;DHT22;19506;51.040;3.856;2022-09-30T07:00:36;16.10;99.90
33149;DHT22;19506;51.040;3.856;2022-09-30T07:03:02;16.10;99.90
33149;DHT22;19506;51.040;3.856;2022-09-30T07:05:30;16.10;99.90
33149;DHT22;19506;51.040;3.856;2022-09-30T07:07:56;16.10;99.90
33149;DHT22;19506;51.040;3.856;2022-09-30T07:10:21;16.10;99.90
33149;DHT22;19506;51.040;3.856;2022-09-30T07:12:51;16.10;99.90
33149;DHT22;19506;51.040;3.856;2022-09-30T07:15:18;16.10;99.90
33149;DHT22;19506;51.040;3.856;2022-09-30T07:17:52;16.10;99.90
33149;DHT22;19506;51.040;3.856;2022-09-30T07:20:19;16.10;99.90
33149;DHT22;19506;51.040;3.856;2022-09-30T07:22:44;16.10;99.90
33149;DHT22;19506;51.040;3.856;2022-09-30T07:25:10;16.10;99.90
33149;DHT22;19506;51.040;3.856;2022-09-30T07:27:36;16.10;99.90
33149;DHT22;19506;51.040;3.856;2022-09-30T07:30:02;16.10;99.90
33149;DHT22;19506;51.040;3.856;2022-09-30T07:32:28;16.10;99.90
33149;DHT22;19506;51.040;3.856;2022-09-30T07:34:53;16.10;99.90
33149;DHT22;19506;51.040;3.856;2022-09-30T07:37:19;16.10;99.90
33149;DHT22;19506;51.040;3.856;2022-09-30T07:39:47;16.10;99.90
33149;DHT22;19506;51.040;3.856;2022-09-30T07:42:17;16.10;99.90
33149;DHT22;19506;51.040;3.856;2022-09-30T07:44:47;16.10;99.90
33149;DHT22;19506;51.040;3.856;2022-09-30T07:47:13;16.10;99.90
33149;DHT22;19506;51.040;3.856;2022-09-30T07:49:41;16.10;99.90
33149;DHT22;19506;51.040;3.856;2022-09-30T07:52:07;16.10;99.90
33149;DHT22;19506;51.040;3.856;2022-09-30T07:54:34;16.20;99.90
33149;DHT22;19506;51.040;3.856;2022-09-30T07:57:02;16.10;99.90
33149;DHT22;19506;51.040;3.856;2022-09-30T07:59:29;16.20;99.90
33149;DHT22;19506;51.040;3.856;2022-09-30T08:01:56;16.20;99.90
33149;DHT22;19506;51.040;3.856;2022-09-30T08:04:22;16.20;99.90
33149;DHT22;19506;51.040;3.856;2022-09-30T08:06:51;16.20;99.90
33149;DHT22;19506;51.040;3.856;2022-09-30T08:09:19;16.20;99.90
33149;DHT22;19506;51.040;3.856;2022-09-30T08:11:45;16.20;99.90
33149;DHT22;19506;51.040;3.856;2022-09-30T08:14:14;16.30;99.90
33149;DHT22;19506;51.040;3.856;2022-09-30T08:16:41;16.20;99.90
33149;DHT22;19506;51.040;3.856;2022-09-30T08:19:08;16.30;99.90
33149;DHT22;19506;51.040;3.856;2022-09-30T08:21:37;16.30;99.90
33149;DHT22;19506;51.040;3.856;2022-09-30T08:24:02;16.30;99.90
33149;DHT22;19506;51.040;3.856;2022-09-30T08:26:28;16.40;99.90
33149;DHT22;19506;51.040;3.856;2022-09-30T08:28:54;16.40;99.90
33149;DHT22;19506;51.040;3.856;2022-09-30T08:31:20;16.40;99.90
33149;DHT22;19506;51.040;3.856;2022-09-30T08:33:46;16.40;99.90
33149;DHT22;19506;51.040;3.856;2022-09-30T08:36:15;16.40;99.90
33149;DHT22;19506;51.040;3.856;2022-09-30T08:38:41;16.40;99.90
33149;DHT22;19506;51.040;3.856;2022-09-30T08:43:50;16.50;99.90
33149;DHT22;19506;51.040;3.856;2022-09-30T08:46:27;16.50;99.90
33149;DHT22;19506;51.040;3.856;2022-09-30T08:51:47;16.50;99.90
33149;DHT22;19506;51.040;3.856;2022-09-30T08:54:17;16.50;99.90
33149;DHT22;19506;51.040;3.856;2022-09-30T08:56:45;16.60;99.90
33149;DHT22;19506;51.040;3.856;2022-09-30T09:01:46;16.60;99.90
33149;DHT22;19506;51.040;3.856;2022-09-30T09:04:13;16.70;99.90
33149;DHT22;19506;51.040;3.856;2022-09-30T09:06:52;16.70;99.90
33149;DHT22;19506;51.040;3.856;2022-09-30T09:09:47;16.70;99.90
33149;DHT22;19506;51.040;3.856;2022-09-30T09:18:15;16.80;99.90
33149;DHT22;19506;51.040;3.856;2022-09-30T09:20:33;16.80;99.90
33149;DHT22;19506;51.040;3.856;2022-09-30T09:23:02;16.90;99.90
33149;DHT22;19506;51.040;3.856;2022-09-30T09:25:28;16.90;99.90
33149;DHT22;19506;51.040;3.856;2022-09-30T09:30:25;17.00;99.90
33149;DHT22;19506;51.040;3.856;2022-09-30T09:32:54;17.00;99.90
33149;DHT22;19506;51.040;3.856;2022-09-30T09:41:11;17.10;99.90
33149;DHT22;19506;51.040;3.856;2022-09-30T09:43:49;17.20;99.90
33149;DHT22;19506;51.040;3.856;2022-09-30T09:48:48;17.20;99.90
33149;DHT22;19506;51.040;3.856;2022-09-30T09:56:15;17.30;99.90
33149;DHT22;19506;51.040;3.856;2022-09-30T09:59:15;17.40;99.90
33149;DHT22;19506;51.040;3.856;2022-09-30T10:01:43;17.40;99.90
33149;DHT22;19506;51.040;3.856;2022-09-30T10:04:14;17.40;99.90
33149;DHT22;19506;51.040;3.856;2022-09-30T10:09:32;17.50;99.90
33149;DHT22;19506;51.040;3.856;2022-09-30T10:14:51;17.60;99.90
33149;DHT22;19506;51.040;3.856;2022-09-30T10:17:26;17.60;99.90
33149;DHT22;19506;51.040;3.856;2022-09-30T10:20:21;17.60;99.90
33149;DHT22;19506;51.040;3.856;2022-09-30T10:22:48;17.70;99.90
33149;DHT22;19506;51.040;3.856;2022-09-30T10:27:57;17.80;99.90
33149;DHT22;19506;51.040;3.856;2022-09-30T10:30:37;17.80;99.90
33149;DHT22;19506;51.040;3.856;2022-09-30T10:38:29;17.90;99.90
33149;DHT22;19506;51.040;3.856;2022-09-30T10:40:58;17.90;99.90
33149;DHT22;19506;51.040;3.856;2022-09-30T10:43:43;18.00;99.90
33149;DHT22;19506;51.040;3.856;2022-09-30T10:46:09;18.00;99.90
33149;DHT22;19506;51.040;3.856;2022-09-30T10:48:37;18.00;99.90
33149;DHT22;19506;51.040;3.856;2022-09-30T10:51:04;18.10;99.90
33149;DHT22;19506;51.040;3.856;2022-09-30T10:53:33;18.10;99.90
33149;DHT22;19506;51.040;3.856;2022-09-30T10:55:59;18.10;99.90
33149;DHT22;19506;51.040;3.856;2022-09-30T10:58:47;18.20;99.90
33149;DHT22;19506;51.040;3.856;2022-09-30T11:01:37;18.20;99.90
33149;DHT22;19506;51.040;3.856;2022-09-30T11:04:22;18.30;99.90
33149;DHT22;19506;51.040;3.856;2022-09-30T11:06:55;18.30;99.90
33149;DHT22;19506;51.040;3.856;2022-09-30T11:09:35;18.40;99.90
33149;DHT22;19506;51.040;3.856;2022-09-30T11:12:17;18.40;99.90
33149;DHT22;19506;51.040;3.856;2022-09-30T11:15:08;18.50;99.90
33149;DHT22;19506;51.040;3.856;2022-09-30T11:17:59;18.50;99.90
33149;DHT22;19506;51.040;3.856;2022-09-30T11:20:31;18.50;99.90
33149;DHT22;19506;51.040;3.856;2022-09-30T11:23:08;18.60;99.90
33149;DHT22;19506;51.040;3.856;2022-09-30T11:28:53;18.70;99.90
33149;DHT22;19506;51.040;3.856;2022-09-30T11:36:49;18.90;99.90
33149;DHT22;19506;51.040;3.856;2022-09-30T11:42:13;19.20;99.90
33149;DHT22;19506;51.040;3.856;2022-09-30T11:44:44;19.30;99.90
33149;DHT22;19506;51.040;3.856;2022-09-30T11:57:50;20.00;99.90
33149;DHT22;19506;51.040;3.856;2022-09-30T12:00:18;19.90;99.90
33149;DHT22;19506;51.040;3.856;2022-09-30T12:02:50;19.80;99.90
33149;DHT22;19506;51.040;3.856;2022-09-30T12:05:48;20.30;99.90
33149;DHT22;19506;51.040;3.856;2022-09-30T12:08:45;20.30;99.90
33149;DHT22;19506;51.040;3.856;2022-09-30T12:11:22;20.10;99.90
33149;DHT22;19506;51.040;3.856;2022-09-30T12:13:57;20.00;99.90
33149;DHT22;19506;51.040;3.856;2022-09-30T12:16:28;19.90;99.90
33149;DHT22;19506;51.040;3.856;2022-09-30T12:19:02;19.90;99.90
33149;DHT22;19506;51.040;3.856;2022-09-30T12:21:57;19.90;99.90
33149;DHT22;19506;51.040;3.856;2022-09-30T12:24:31;20.00;99.90
33149;DHT22;19506;51.040;3.856;2022-09-30T12:26:58;21.10;99.90
33149;DHT22;19506;51.040;3.856;2022-09-30T12:29:38;21.60;99.90
33149;DHT22;19506;51.040;3.856;2022-09-30T12:40:53;20.90;99.90
33149;DHT22;19506;51.040;3.856;2022-09-30T12:46:10;20.80;99.90
33149;DHT22;19506;51.040;3.856;2022-09-30T12:48:48;21.30;99.90
33149;DHT22;19506;51.040;3.856;2022-09-30T12:51:32;21.60;99.90
33149;DHT22;19506;51.040;3.856;2022-09-30T12:54:15;21.80;99.90
33149;DHT22;19506;51.040;3.856;2022-09-30T12:56:44;21.70;99.90
33149;DHT22;19506;51.040;3.856;2022-09-30T12:59:12;21.80;99.90
33149;DHT22;19506;51.040;3.856;2022-09-30T13:01:40;21.90;99.90
33149;DHT22;19506;51.040;3.856;2022-09-30T13:11:46;22.30;99.90
33149;DHT22;19506;51.040;3.856;2022-09-30T13:19:41;22.50;99.90
33149;DHT22;19506;51.040;3.856;2022-09-30T13:25:11;22.30;99.90
33149;DHT22;19506;51.040;3.856;2022-09-30T13:30:34;21.70;99.90
33149;DHT22;19506;51.040;3.856;2022-09-30T13:38:14;21.70;99.90
33149;DHT22;19506;51.040;3.856;2022-09-30T13:44:08;21.30;99.90
33149;DHT22;19506;51.040;3.856;2022-09-30T13:46:48;21.10;99.90
33149;DHT22;19506;51.040;3.856;2022-09-30T13:52:17;20.90;99.90
33149;DHT22;19506;51.040;3.856;2022-09-30T13:54:46;20.90;99.90
33149;DHT22;19506;51.040;3.856;2022-09-30T13:57:24;20.80;99.90
33149;DHT22;19506;51.040;3.856;2022-09-30T14:02:54;20.70;99.90
33149;DHT22;19506;51.040;3.856;2022-09-30T14:05:40;20.70;99.90
33149;DHT22;19506;51.040;3.856;2022-09-30T14:21:53;20.20;99.90
33149;DHT22;19506;51.040;3.856;2022-09-30T14:24:28;20.20;99.90
33149;DHT22;19506;51.040;3.856;2022-09-30T14:35:21;20.10;99.90
33149;DHT22;19506;51.040;3.856;2022-09-30T14:37:56;20.20;99.90
33149;DHT22;19506;51.040;3.856;2022-09-30T14:40:40;20.20;99.90
33149;DHT22;19506;51.040;3.856;2022-09-30T14:43:16;20.10;99.90
33149;DHT22;19506;51.040;3.856;2022-09-30T14:45:45;20.00;99.90
33149;DHT22;19506;51.040;3.856;2022-09-30T14:48:18;20.00;99.90
33149;DHT22;19506;51.040;3.856;2022-09-30T14:53:31;19.90;99.90
33149;DHT22;19506;51.040;3.856;2022-09-30T14:55:58;19.90;99.90
33149;DHT22;19506;51.040;3.856;2022-09-30T14:58:40;19.90;99.90
33149;DHT22;19506;51.040;3.856;2022-09-30T15:01:15;19.80;99.90
33149;DHT22;19506;51.040;3.856;2022-09-30T15:04:20;19.80;99.90
33149;DHT22;19506;51.040;3.856;2022-09-30T15:06:48;19.80;99.90
33149;DHT22;19506;51.040;3.856;2022-09-30T15:09:22;19.80;99.90
33149;DHT22;19506;51.040;3.856;2022-09-30T15:11:48;19.90;99.90
33149;DHT22;19506;51.040;3.856;2022-09-30T15:14:22;19.90;99.90
33149;DHT22;19506;51.040;3.856;2022-09-30T15:16:51;19.90;99.90
33149;DHT22;19506;51.040;3.856;2022-09-30T15:19:20;19.80;99.90
33149;DHT22;19506;51.040;3.856;2022-09-30T15:21:47;19.80;99.90
33149;DHT22;19506;51.040;3.856;2022-09-30T15:24:15;19.80;99.90
33149;DHT22;19506;51.040;3.856;2022-09-30T15:26:42;19.80;99.90
33149;DHT22;19506;51.040;3.856;2022-09-30T15:29:16;19.80;99.90
33149;DHT22;19506;51.040;3.856;2022-09-30T15:31:59;19.80;99.90
33149;DHT22;19506;51.040;3.856;2022-09-30T15:34:26;19.80;99.90
33149;DHT22;19506;51.040;3.856;2022-09-30T15:37:03;19.80;99.90
33149;DHT22;19506;51.040;3.856;2022-09-30T15:39:39;19.80;99.90
33149;DHT22;19506;51.040;3.856;2022-09-30T15:42:31;19.70;99.90
33149;DHT22;19506;51.040;3.856;2022-09-30T15:47:58;19.60;99.90
33149;DHT22;19506;51.040;3.856;2022-09-30T15:50:41;19.50;99.90
33149;DHT22;19506;51.040;3.856;2022-09-30T15:53:20;19.50;99.90
33149;DHT22;19506;51.040;3.856;2022-09-30T16:00:52;19.40;99.90
33149;DHT22;19506;51.040;3.856;2022-09-30T16:03:23;19.40;99.90
33149;DHT22;19506;51.040;3.856;2022-09-30T16:05:49;19.40;99.90
33149;DHT22;19506;51.040;3.856;2022-09-30T16:08:25;19.40;99.90
33149;DHT22;19506;51.040;3.856;2022-09-30T16:10:52;19.40;99.90
33149;DHT22;19506;51.040;3.856;2022-09-30T16:13:21;19.30;99.90
33149;DHT22;19506;51.040;3.856;2022-09-30T16:15:51;19.40;99.90
33149;DHT22;19506;51.040;3.856;2022-09-30T16:18:24;19.30;99.90
33149;DHT22;19506;51.040;3.856;2022-09-30T16:21:02;19.30;99.90
33149;DHT22;19506;51.040;3.856;2022-09-30T16:23:30;19.20;99.90
33149;DHT22;19506;51.040;3.856;2022-09-30T16:26:31;19.20;99.90
33149;DHT22;19506;51.040;3.856;2022-09-30T16:28:57;19.10;99.90
33149;DHT22;19506;51.040;3.856;2022-09-30T16:31:27;19.10;99.90
33149;DHT22;19506;51.040;3.856;2022-09-30T16:33:54;19.10;99.90
33149;DHT22;19506;51.040;3.856;2022-09-30T16:36:20;19.10;99.90
33149;DHT22;19506;51.040;3.856;2022-09-30T16:38:45;19.00;99.90
33149;DHT22;19506;51.040;3.856;2022-09-30T16:41:12;19.00;99.90
33149;DHT22;19506;51.040;3.856;2022-09-30T16:43:38;19.00;99.90
33149;DHT22;19506;51.040;3.856;2022-09-30T16:46:04;19.10;99.90
33149;DHT22;19506;51.040;3.856;2022-09-30T16:48:30;19.10;99.90
33149;DHT22;19506;51.040;3.856;2022-09-30T16:51:03;19.10;99.90
33149;DHT22;19506;51.040;3.856;2022-09-30T16:53:29;19.10;99.90
33149;DHT22;19506;51.040;3.856;2022-09-30T16:55:55;18.90;99.90
33149;DHT22;19506;51.040;3.856;2022-09-30T16:58:21;18.80;99.90
33149;DHT22;19506;51.040;3.856;2022-09-30T17:00:47;18.80;99.90
33149;DHT22;19506;51.040;3.856;2022-09-30T17:03:15;18.70;99.90
33149;DHT22;19506;51.040;3.856;2022-09-30T17:05:42;18.70;99.90
33149;DHT22;19506;51.040;3.856;2022-09-30T17:08:11;18.70;99.90
33149;DHT22;19506;51.040;3.856;2022-09-30T17:10:41;18.70;99.90
33149;DHT22;19506;51.040;3.856;2022-09-30T17:13:08;18.70;99.90
33149;DHT22;19506;51.040;3.856;2022-09-30T17:15:34;18.60;99.90
33149;DHT22;19506;51.040;3.856;2022-09-30T17:18:04;18.50;99.90
33149;DHT22;19506;51.040;3.856;2022-09-30T17:20:32;18.50;99.90
33149;DHT22;19506;51.040;3.856;2022-09-30T17:22:58;18.50;99.90
33149;DHT22;19506;51.040;3.856;2022-09-30T17:25:23;18.50;99.90
33149;DHT22;19506;51.040;3.856;2022-09-30T17:27:49;18.50;99.90
33149;DHT22;19506;51.040;3.856;2022-09-30T17:30:15;18.40;99.90
33149;DHT22;19506;51.040;3.856;2022-09-30T17:32:41;18.40;99.90
33149;DHT22;19506;51.040;3.856;2022-09-30T17:35:09;18.40;99.90
33149;DHT22;19506;51.040;3.856;2022-09-30T17:37:35;18.40;99.90
33149;DHT22;19506;51.040;3.856;2022-09-30T17:40:07;18.40;99.90
33149;DHT22;19506;51.040;3.856;2022-09-30T17:42:55;18.40;99.90
33149;DHT22;19506;51.040;3.856;2022-09-30T17:45:35;18.40;99.90
33149;DHT22;19506;51.040;3.856;2022-09-30T17:48:02;18.40;99.90
33149;DHT22;19506;51.040;3.856;2022-09-30T17:50:28;18.30;99.90
33149;DHT22;19506;51.040;3.856;2022-09-30T17:52:54;18.40;99.90
33149;DHT22;19506;51.040;3.856;2022-09-30T17:55:20;18.30;99.90
33149;DHT22;19506;51.040;3.856;2022-09-30T17:57:46;18.30;99.90
33149;DHT22;19506;51.040;3.856;2022-09-30T18:00:11;18.30;99.90
33149;DHT22;19506;51.040;3.856;2022-09-30T18:02:38;18.30;99.90
33149;DHT22;19506;51.040;3.856;2022-09-30T18:05:05;18.30;99.90
33149;DHT22;19506;51.040;3.856;2022-09-30T18:07:31;18.30;99.90
33149;DHT22;19506;51.040;3.856;2022-09-30T18:09:56;18.30;99.90
33149;DHT22;19506;51.040;3.856;2022-09-30T18:12:22;18.30;99.90
33149;DHT22;19506;51.040;3.856;2022-09-30T18:14:47;18.30;99.90
33149;DHT22;19506;51.040;3.856;2022-09-30T18:17:13;18.20;99.90
33149;DHT22;19506;51.040;3.856;2022-09-30T18:19:39;18.20;99.90
33149;DHT22;19506;51.040;3.856;2022-09-30T18:22:04;18.30;99.90
33149;DHT22;19506;51.040;3.856;2022-09-30T18:24:30;18.20;99.90
33149;DHT22;19506;51.040;3.856;2022-09-30T18:27:14;18.20;99.90
33149;DHT22;19506;51.040;3.856;2022-09-30T18:29:40;18.20;99.90
33149;DHT22;19506;51.040;3.856;2022-09-30T18:32:06;18.20;99.90
33149;DHT22;19506;51.040;3.856;2022-09-30T18:34:32;18.20;99.90
33149;DHT22;19506;51.040;3.856;2022-09-30T18:36:58;18.20;99.90
33149;DHT22;19506;51.040;3.856;2022-09-30T18:39:34;18.20;99.90
33149;DHT22;19506;51.040;3.856;2022-09-30T18:42:02;18.20;99.90
33149;DHT22;19506;51.040;3.856;2022-09-30T18:44:29;18.20;99.90
33149;DHT22;19506;51.040;3.856;2022-09-30T18:46:57;18.20;99.90
33149;DHT22;19506;51.040;3.856;2022-09-30T18:49:23;18.20;99.90
33149;DHT22;19506;51.040;3.856;2022-09-30T18:51:49;18.20;99.90
33149;DHT22;19506;51.040;3.856;2022-09-30T18:54:15;18.30;99.90
33149;DHT22;19506;51.040;3.856;2022-09-30T18:56:41;18.20;99.90
33149;DHT22;19506;51.040;3.856;2022-09-30T18:59:09;18.20;99.90